createdAt,value
2022-12-03T00:00:49.820Z,1.50
2022-12-03T00:04:52.917Z,1.58
2022-12-03T00:08:54.568Z,1.62
2022-12-03T00:12:55.924Z,1.64
2022-12-03T00:16:57.287Z,1.82
2022-12-03T00:21:00.055Z,1.73
2022-12-03T00:25:01.464Z,1.72
2022-12-03T00:29:03.221Z,1.55
2022-12-03T00:33:04.714Z,1.50
2022-12-03T00:37:07.460Z,1.51
2022-12-03T00:41:08.893Z,1.61
2022-12-03T00:45:10.428Z,1.56
2022-12-03T00:49:11.809Z,1.53
2022-12-03T00:53:14.533Z,1.51
2022-12-03T00:57:15.915Z,1.53
2022-12-03T01:01:17.384Z,1.61
2022-12-03T01:05:18.869Z,1.53
2022-12-03T01:09:21.741Z,1.53
2022-12-03T01:13:23.136Z,1.55
2022-12-03T01:17:24.546Z,1.47
2022-12-03T01:21:25.949Z,1.54
2022-12-03T01:25:28.721Z,1.61
2022-12-03T01:29:30.068Z,1.68
2022-12-03T01:33:31.455Z,1.72
2022-12-03T01:37:32.830Z,1.63
2022-12-03T01:41:36.188Z,1.67
2022-12-03T01:45:37.591Z,1.80
2022-12-03T01:49:40.630Z,1.72
2022-12-03T01:53:43.354Z,1.85
2022-12-03T01:57:48.761Z,1.78
2022-12-03T02:01:50.227Z,1.70
2022-12-03T02:05:51.961Z,1.56
2022-12-03T02:09:54.365Z,1.47
2022-12-03T02:13:59.660Z,1.57
2022-12-03T02:18:01.581Z,1.60
2022-12-03T02:22:05.547Z,1.53
2022-12-03T02:26:08.712Z,1.71
2022-12-03T02:30:10.758Z,1.69
2022-12-03T02:34:26.981Z,1.75
2022-12-03T02:38:29.786Z,1.65
2022-12-03T02:42:32.541Z,1.57
2022-12-03T02:46:34.219Z,1.54
2022-12-03T02:50:37.484Z,1.63
2022-12-03T02:54:38.989Z,1.72
2022-12-03T02:58:42.807Z,1.73
2022-12-03T03:02:45.143Z,1.54
2022-12-03T03:06:46.554Z,1.57
2022-12-03T03:10:48.227Z,1.68
2022-12-03T03:14:51.098Z,1.80
2022-12-03T03:18:52.622Z,1.63
2022-12-03T03:22:53.987Z,1.66
2022-12-03T03:26:55.405Z,1.64
2022-12-03T03:31:00.001Z,1.65
2022-12-03T03:35:01.739Z,1.69
2022-12-03T03:39:03.365Z,1.88
2022-12-03T03:43:05.083Z,1.57
2022-12-03T03:47:07.914Z,1.53
2022-12-03T03:51:10.068Z,1.56
2022-12-03T03:55:12.000Z,1.73
2022-12-03T03:59:13.856Z,1.77
2022-12-03T04:03:16.643Z,1.63
2022-12-03T04:07:18.051Z,1.70
2022-12-03T04:11:19.402Z,1.65
2022-12-03T04:15:20.815Z,1.92
2022-12-03T04:19:23.564Z,1.71
2022-12-03T04:23:30.617Z,1.68
2022-12-03T04:27:32.358Z,1.95
2022-12-03T04:31:33.742Z,1.98
2022-12-03T04:35:36.594Z,1.73
2022-12-03T04:39:38.017Z,1.63
2022-12-03T04:43:39.403Z,1.58
2022-12-03T04:47:40.754Z,1.74
2022-12-03T04:51:43.482Z,1.72
2022-12-03T04:55:44.885Z,1.72
2022-12-03T04:59:46.296Z,1.73
2022-12-03T05:03:47.678Z,1.62
2022-12-03T05:07:50.453Z,1.73
2022-12-03T05:11:51.827Z,1.83
2022-12-03T05:15:53.198Z,1.72
2022-12-03T05:19:54.560Z,1.69
2022-12-03T05:23:57.329Z,1.79
2022-12-03T05:27:58.669Z,1.75
2022-12-03T05:32:00.025Z,1.69
2022-12-03T05:36:01.485Z,1.67
2022-12-03T05:40:04.860Z,1.86
2022-12-03T05:44:06.262Z,2.01
2022-12-03T05:48:08.971Z,2.01
2022-12-03T05:52:10.382Z,1.73
2022-12-03T05:56:13.096Z,1.75
2022-12-03T06:00:15.792Z,1.62
2022-12-03T06:04:17.156Z,1.64
2022-12-03T06:08:18.605Z,1.80
2022-12-03T06:12:21.385Z,1.80
2022-12-03T06:16:22.837Z,1.88
2022-12-03T06:20:24.240Z,1.86
2022-12-03T06:24:25.655Z,1.97
2022-12-03T06:28:28.364Z,1.65
2022-12-03T06:32:29.720Z,1.61
2022-12-03T06:36:31.079Z,1.81
2022-12-03T06:40:32.448Z,1.63
2022-12-03T06:44:35.165Z,1.64
2022-12-03T06:48:36.609Z,1.92
2022-12-03T06:52:37.986Z,1.68
2022-12-03T06:56:45.160Z,1.67
2022-12-03T07:00:48.233Z,1.53
2022-12-03T07:04:49.609Z,1.71
2022-12-03T07:08:50.968Z,1.57
2022-12-03T07:12:52.344Z,1.78
2022-12-03T07:16:55.090Z,1.91
2022-12-03T07:20:56.444Z,1.86
2022-12-03T07:24:57.808Z,1.88
2022-12-03T07:28:59.199Z,1.84
2022-12-03T07:33:01.930Z,1.80
2022-12-03T07:37:03.307Z,1.80
2022-12-03T07:41:04.755Z,1.95
2022-12-03T07:45:06.769Z,2.05
2022-12-03T07:49:09.577Z,2.03
2022-12-03T07:53:10.914Z,2.25
2022-12-03T07:57:12.408Z,2.15
2022-12-03T08:01:13.834Z,1.92
2022-12-03T08:05:16.948Z,2.12
2022-12-03T08:09:18.309Z,1.94
2022-12-03T08:13:19.707Z,2.16
2022-12-03T08:17:21.180Z,2.21
2022-12-03T08:21:23.934Z,2.34
2022-12-03T08:25:26.777Z,2.43
2022-12-03T08:29:28.121Z,2.31
2022-12-03T08:33:32.533Z,2.38
2022-12-03T08:37:35.654Z,2.42
2022-12-03T08:41:37.018Z,2.23
2022-12-03T08:45:41.125Z,2.45
2022-12-03T08:49:45.392Z,2.37
2022-12-03T08:53:49.002Z,2.30
2022-12-03T08:57:50.352Z,2.28
2022-12-03T09:01:51.798Z,2.58
2022-12-03T09:05:53.286Z,2.64
2022-12-03T09:09:56.019Z,2.56
2022-12-03T09:14:00.495Z,2.63
2022-12-03T09:18:01.979Z,2.55
2022-12-03T09:22:03.349Z,2.65
2022-12-03T09:26:06.160Z,2.53
2022-12-03T09:30:08.182Z,2.57
2022-12-03T09:34:09.814Z,2.40
2022-12-03T09:38:11.208Z,2.46
2022-12-03T09:42:14.588Z,2.36
2022-12-03T09:46:16.150Z,2.43
2022-12-03T09:50:19.968Z,2.35
2022-12-03T09:54:22.286Z,2.29
2022-12-03T09:58:30.445Z,2.35
2022-12-03T10:02:34.779Z,2.58
2022-12-03T10:06:39.831Z,2.53
2022-12-03T10:10:44.261Z,2.60
2022-12-03T10:14:47.012Z,2.50
2022-12-03T10:18:49.756Z,2.77
2022-12-03T10:22:51.340Z,2.73
2022-12-03T10:26:53.270Z,2.66
2022-12-03T10:30:56.550Z,2.74
2022-12-03T10:35:06.840Z,2.64
2022-12-03T10:39:10.060Z,2.65
2022-12-03T10:43:16.265Z,2.59
2022-12-03T10:47:19.129Z,2.63
2022-12-03T10:51:21.288Z,2.46
2022-12-03T10:55:22.702Z,2.58
2022-12-03T10:59:25.575Z,2.55
2022-12-03T11:03:29.581Z,2.59
2022-12-03T11:07:31.653Z,2.72
2022-12-03T11:11:33.105Z,2.62
2022-12-03T11:15:42.322Z,2.64
2022-12-03T11:19:46.721Z,2.58
2022-12-03T11:24:18.300Z,2.60
2022-12-03T11:28:33.358Z,2.68
2022-12-03T11:33:07.803Z,2.75
2022-12-03T11:37:22.997Z,2.58
2022-12-03T11:41:26.083Z,2.48
2022-12-03T11:45:32.680Z,2.50
2022-12-03T11:49:38.260Z,2.72
2022-12-03T11:53:41.934Z,2.57
2022-12-03T11:57:43.350Z,2.45
2022-12-03T12:01:45.351Z,2.56
2022-12-03T12:05:46.754Z,2.59
2022-12-03T12:09:50.601Z,2.70
2022-12-03T12:13:52.572Z,2.60
2022-12-03T12:17:53.910Z,2.44
2022-12-03T12:21:55.391Z,2.56
2022-12-03T12:26:06.580Z,2.52
2022-12-03T12:30:12.852Z,2.45
2022-12-03T12:34:14.539Z,2.50
2022-12-03T12:38:17.265Z,2.46
2022-12-03T12:42:30.588Z,2.54
2022-12-03T12:46:47.779Z,2.71
2022-12-03T12:50:51.860Z,2.56
2022-12-03T12:54:53.312Z,2.46
2022-12-03T12:58:57.062Z,2.55
2022-12-03T13:03:00.158Z,2.58
2022-12-03T13:07:01.681Z,2.60
2022-12-03T13:11:03.312Z,2.44
2022-12-03T13:15:30.536Z,2.42
2022-12-03T13:19:39.631Z,2.34
2022-12-03T13:23:48.601Z,2.27
2022-12-03T13:27:50.498Z,2.29
2022-12-03T13:31:55.210Z,2.38
2022-12-03T13:35:56.783Z,2.40
2022-12-03T13:40:02.151Z,2.17
2022-12-03T13:44:12.219Z,2.11
2022-12-03T13:48:21.597Z,2.22
2022-12-03T13:52:24.058Z,2.35
2022-12-03T13:56:26.886Z,2.14
2022-12-03T14:00:28.269Z,2.20
2022-12-03T14:04:30.976Z,2.01
2022-12-03T14:08:32.372Z,2.20
2022-12-03T14:12:33.908Z,2.33
2022-12-03T14:16:35.502Z,2.10
2022-12-03T14:20:38.332Z,2.17
2022-12-03T14:24:39.674Z,2.07
2022-12-03T14:28:41.070Z,2.12
2022-12-03T14:32:42.460Z,1.98
2022-12-03T14:36:45.208Z,1.87
2022-12-03T14:40:46.586Z,1.86
2022-12-03T14:44:48.580Z,1.82
2022-12-03T14:48:49.963Z,1.84
2022-12-03T14:52:52.751Z,1.94
2022-12-03T14:56:54.134Z,1.79
2022-12-03T15:00:55.589Z,1.79
2022-12-03T15:04:56.941Z,1.77
2022-12-03T15:08:59.764Z,1.77
2022-12-03T15:13:01.146Z,1.74
2022-12-03T15:17:02.581Z,1.57
2022-12-03T15:21:04.024Z,1.60
2022-12-03T15:25:07.264Z,1.75
2022-12-03T15:29:08.648Z,1.72
2022-12-03T15:33:10.106Z,1.71
2022-12-03T15:37:11.491Z,1.71
2022-12-03T15:41:14.216Z,1.82
2022-12-03T15:45:15.794Z,1.76
2022-12-03T15:49:17.193Z,1.71
2022-12-03T15:53:18.538Z,1.73
2022-12-03T15:57:21.286Z,1.86
2022-12-03T16:01:22.703Z,1.72
2022-12-03T16:05:24.135Z,1.90
2022-12-03T16:09:27.586Z,1.74
2022-12-03T16:13:30.611Z,1.71
2022-12-03T16:17:31.969Z,1.65
2022-12-03T16:21:33.319Z,1.72
2022-12-03T16:25:34.715Z,1.74
2022-12-03T16:29:37.445Z,1.84
2022-12-03T16:33:38.848Z,1.80
2022-12-03T16:37:40.217Z,1.78
2022-12-03T16:41:41.925Z,1.70
2022-12-03T16:45:44.666Z,1.75
2022-12-03T16:49:46.050Z,1.80
2022-12-03T16:53:47.562Z,1.90
2022-12-03T16:57:49.002Z,1.90
2022-12-03T17:01:51.763Z,1.76
2022-12-03T17:05:53.153Z,1.69
2022-12-03T17:09:54.856Z,1.62
2022-12-03T17:13:56.422Z,1.60
2022-12-03T17:17:59.348Z,1.61
2022-12-03T17:22:00.706Z,1.65
2022-12-03T17:26:02.099Z,1.65
2022-12-03T17:30:04.713Z,1.65
2022-12-03T17:34:07.491Z,1.73
2022-12-03T17:38:08.895Z,1.79
2022-12-03T17:42:10.250Z,1.83
2022-12-03T17:46:11.698Z,1.67
2022-12-03T17:50:14.467Z,1.87
2022-12-03T17:54:15.867Z,1.66
2022-12-03T17:58:17.271Z,1.64
2022-12-03T18:02:18.770Z,1.72
2022-12-03T18:06:21.623Z,1.71
2022-12-03T18:10:23.109Z,1.65
2022-12-03T18:14:24.472Z,1.88
2022-12-03T18:18:25.884Z,1.79
2022-12-03T18:22:28.692Z,1.70
2022-12-03T18:26:30.189Z,1.58
2022-12-03T18:30:31.582Z,1.70
2022-12-03T18:34:32.981Z,1.86
2022-12-03T18:38:35.759Z,1.75
2022-12-03T18:42:37.137Z,1.71
2022-12-03T18:46:53.087Z,1.68
2022-12-03T18:50:55.215Z,1.59
2022-12-03T18:54:57.962Z,1.54
2022-12-03T18:58:59.315Z,1.70
2022-12-03T19:03:03.418Z,1.66
2022-12-03T19:07:05.438Z,1.62
2022-12-03T19:11:10.670Z,1.60
2022-12-03T19:15:12.058Z,1.63
2022-12-03T19:19:13.450Z,1.64
2022-12-03T19:23:15.132Z,1.71
2022-12-03T19:27:17.933Z,1.84
2022-12-03T19:31:19.402Z,1.74
2022-12-03T19:35:21.120Z,1.72
2022-12-03T19:39:22.503Z,1.72
2022-12-03T19:43:25.268Z,1.72
2022-12-03T19:47:26.660Z,1.79
2022-12-03T19:51:34.588Z,1.75
2022-12-03T19:55:36.623Z,1.86
2022-12-03T19:59:39.338Z,1.93
2022-12-03T20:03:40.827Z,1.94
2022-12-03T20:07:42.329Z,1.85
2022-12-03T20:11:43.977Z,1.90
2022-12-03T20:15:46.731Z,1.85
2022-12-03T20:19:48.080Z,1.93
2022-12-03T20:23:49.453Z,1.90
2022-12-03T20:27:50.854Z,1.78
2022-12-03T20:31:53.644Z,1.86
2022-12-03T20:35:55.659Z,1.81
2022-12-03T20:39:57.336Z,1.94
2022-12-03T20:43:58.875Z,2.07
2022-12-03T20:48:01.619Z,1.92
2022-12-03T20:52:04.887Z,1.91
2022-12-03T20:56:06.997Z,1.92
2022-12-03T21:00:08.754Z,1.95
2022-12-03T21:04:11.792Z,1.95
2022-12-03T21:08:13.615Z,1.92
2022-12-03T21:12:15.014Z,1.85
2022-12-03T21:16:17.636Z,1.82
2022-12-03T21:20:21.373Z,1.95
2022-12-03T21:24:22.887Z,1.95
2022-12-03T21:28:24.316Z,2.10
2022-12-03T21:32:25.714Z,2.20
2022-12-03T21:36:28.461Z,1.98
2022-12-03T21:40:29.819Z,1.91
2022-12-03T21:44:31.233Z,2.09
2022-12-03T21:48:33.228Z,2.06
2022-12-03T21:52:35.981Z,2.10
2022-12-03T21:56:37.434Z,2.13
2022-12-03T22:00:38.772Z,2.15
2022-12-03T22:04:40.138Z,1.92
2022-12-03T22:08:43.003Z,1.92
2022-12-03T22:12:44.392Z,1.98
2022-12-03T22:16:45.734Z,2.10
2022-12-03T22:20:47.174Z,2.04
2022-12-03T22:24:49.916Z,1.98
2022-12-03T22:28:51.312Z,1.98
2022-12-03T22:32:52.730Z,2.10
2022-12-03T22:36:54.097Z,2.14
2022-12-03T22:40:56.874Z,2.09
2022-12-03T22:44:58.248Z,2.10
2022-12-03T22:49:06.383Z,2.06
2022-12-03T22:53:08.489Z,2.02
2022-12-03T22:57:11.321Z,2.06
2022-12-03T23:01:19.857Z,1.97
2022-12-03T23:05:21.230Z,2.10
2022-12-03T23:09:22.586Z,2.15
2022-12-03T23:13:25.390Z,2.14
2022-12-03T23:17:26.734Z,2.14
2022-12-03T23:21:30.586Z,2.18
2022-12-03T23:25:32.282Z,2.22
2022-12-03T23:29:35.413Z,2.06
2022-12-03T23:33:38.596Z,2.03
2022-12-03T23:37:42.515Z,2.21
2022-12-03T23:41:43.945Z,2.17
2022-12-03T23:45:46.685Z,2.17
2022-12-03T23:49:48.042Z,2.18
2022-12-03T23:53:49.816Z,2.12
2022-12-03T23:57:51.195Z,2.14
